Time;durP1;ratioP1;P1;durP2;ratioP2;P2;SDS_P1;SDS_P2;PMS_P1;PMS_P2;Temp;Humidity;BMP_temperature;BMP_pressure;BME280_temperature;BME280_humidity;BME280_pressure;Samples;Min_cycle;Max_cycle;Signal;HPM_P1;HPM_P2
2023/10/12 00:01:57;;;;;;;1.92;0.60;;;16.10;99.90;;;;;;5117124;28;20062;-71
2023/10/12 00:04:28;;;;;;;3.95;0.80;;;15.90;99.90;;;;;;5116661;28;20066;-73
2023/10/12 00:06:55;;;;;;;5.80;0.93;;;15.80;99.90;;;;;;5099712;28;20518;-70
2023/10/12 00:09:25;;;;;;;5.38;0.90;;;15.60;99.90;;;;;;5117577;28;20522;-70
2023/10/12 00:11:58;;;;;;;2.35;0.75;;;15.60;99.90;;;;;;5117300;28;20123;-70
2023/10/12 00:14:32;;;;;;;3.95;1.50;;;15.60;99.90;;;;;;5099521;28;20272;-69
2023/10/12 00:16:58;;;;;;;2.33;0.80;;;15.50;99.90;;;;;;5097863;28;20051;-69
2023/10/12 00:19:25;;;;;;;7.00;1.50;;;15.50;99.90;;;;;;5117632;28;20066;-69
2023/10/12 00:21:56;;;;;;;3.53;0.90;;;15.40;99.90;;;;;;5116567;28;20418;-69
2023/10/12 00:24:22;;;;;;;5.60;1.60;;;15.40;99.90;;;;;;5099293;28;20039;-69
2023/10/12 00:26:52;;;;;;;4.70;0.80;;;15.30;99.90;;;;;;5099049;28;20073;-68
2023/10/12 00:29:18;;;;;;;1.42;0.90;;;15.30;99.90;;;;;;5116204;28;20075;-69
2023/10/12 00:31:48;;;;;;;1.10;0.65;;;15.30;99.90;;;;;;5116697;28;20046;-69
2023/10/12 00:34:15;;;;;;;1.20;0.70;;;15.40;99.90;;;;;;5097573;28;20047;-68
2023/10/12 00:36:45;;;;;;;1.88;0.90;;;15.30;99.90;;;;;;5116872;28;20066;-68
2023/10/12 00:39:14;;;;;;;4.05;0.75;;;15.30;99.90;;;;;;5116761;28;20054;-67
2023/10/12 00:41:45;;;;;;;5.75;1.10;;;15.20;99.90;;;;;;5116807;28;20039;-67
2023/10/12 00:44:12;;;;;;;3.10;1.00;;;15.20;99.90;;;;;;5116800;28;20127;-67
2023/10/12 00:47:28;;;;;;;5.93;1.35;;;15.10;99.90;;;;;;5115907;28;20100;-69
2023/10/12 00:49:38;;;;;;;5.97;1.10;;;15.00;99.90;;;;;;5112889;28;20043;-71
2023/10/12 00:52:08;;;;;;;6.28;1.50;;;15.00;99.90;;;;;;5115113;28;20420;-70
2023/10/12 00:57:10;;;;;;;10.48;1.90;;;15.20;99.90;;;;;;5115843;28;20439;-67
2023/10/12 00:59:38;;;;;;;5.75;1.48;;;15.30;99.90;;;;;;5113931;28;20435;-68
2023/10/12 01:02:08;;;;;;;8.65;1.60;;;15.30;99.90;;;;;;5115464;28;20470;-68
2023/10/12 01:04:39;;;;;;;6.78;1.80;;;15.40;99.90;;;;;;5114548;28;20443;-69
2023/10/12 01:07:11;;;;;;;6.93;1.48;;;15.40;99.90;;;;;;5097000;28;20410;-68
2023/10/12 01:09:42;;;;;;;7.28;1.60;;;15.40;99.90;;;;;;5115407;28;20412;-69
2023/10/12 01:12:15;;;;;;;9.23;1.80;;;15.50;99.90;;;;;;5114093;28;20423;-69
2023/10/12 01:14:48;;;;;;;8.82;1.98;;;15.50;99.90;;;;;;5114612;28;20423;-69
2023/10/12 01:17:23;;;;;;;7.88;1.67;;;15.50;99.90;;;;;;5114326;28;20412;-70
2023/10/12 01:19:51;;;;;;;9.70;1.80;;;15.40;99.90;;;;;;5115154;28;20396;-69
2023/10/12 01:22:25;;;;;;;9.90;2.05;;;15.50;99.90;;;;;;5114932;28;20763;-69
2023/10/12 01:27:25;;;;;;;6.30;1.70;;;15.50;99.90;;;;;;5115396;28;20776;-69
2023/10/12 01:29:52;;;;;;;6.30;1.63;;;15.50;99.90;;;;;;5095245;28;20399;-69
2023/10/12 01:34:55;;;;;;;7.72;1.60;;;15.50;99.90;;;;;;5114313;28;20420;-69
2023/10/12 01:37:26;;;;;;;8.00;1.70;;;15.50;99.90;;;;;;5115007;28;20795;-73
2023/10/12 01:42:50;;;;;;;7.13;1.70;;;15.50;99.90;;;;;;5095334;28;20408;-71
2023/10/12 01:46:07;;;;;;;9.88;1.85;;;15.50;99.90;;;;;;5100982;28;20412;-72
2023/10/12 01:48:10;;;;;;;7.35;1.70;;;15.40;99.90;;;;;;5092831;28;20444;-72
2023/10/12 01:50:39;;;;;;;9.25;2.00;;;15.40;99.90;;;;;;5100077;28;20831;-72
2023/10/12 01:53:12;;;;;;;7.03;1.60;;;15.40;99.90;;;;;;5100554;28;20469;-70
2023/10/12 01:55:37;;;;;;;6.45;1.50;;;15.40;99.90;;;;;;5099249;28;20400;-73
2023/10/12 01:58:05;;;;;;;6.38;1.75;;;15.40;99.90;;;;;;5100431;28;20929;-74
2023/10/12 02:00:39;;;;;;;6.72;1.65;;;15.50;99.90;;;;;;5118066;28;20392;-73
2023/10/12 02:03:20;;;;;;;7.10;1.60;;;15.50;99.90;;;;;;5099607;28;20503;-72
2023/10/12 02:05:58;;;;;;;8.10;1.98;;;15.40;99.90;;;;;;5118722;28;20451;-73
2023/10/12 02:08:42;;;;;;;7.77;1.90;;;15.40;99.90;;;;;;5099014;28;20412;-72
2023/10/12 02:11:26;;;;;;;8.48;1.90;;;15.40;99.90;;;;;;5099187;28;20404;-73
2023/10/12 02:13:54;;;;;;;4.78;1.70;;;15.40;99.90;;;;;;5118389;28;20396;-76
2023/10/12 02:16:31;;;;;;;8.00;1.80;;;15.40;99.90;;;;;;5117895;28;20859;-74
2023/10/12 02:19:04;;;;;;;9.32;2.00;;;15.40;99.90;;;;;;5100146;28;20408;-74
2023/10/12 02:21:33;;;;;;;9.07;1.90;;;15.30;99.90;;;;;;5099200;28;20889;-73
2023/10/12 02:24:22;;;;;;;6.28;1.80;;;15.30;99.90;;;;;;5100366;28;20412;-74
2023/10/12 02:29:17;;;;;;;10.77;1.83;;;15.30;99.90;;;;;;5098597;28;20404;-74
2023/10/12 02:34:29;;;;;;;8.50;1.80;;;15.30;99.90;;;;;;5116873;28;20495;-71
2023/10/12 02:39:39;;;;;;;6.80;1.75;;;15.30;99.90;;;;;;5118130;28;20408;-70
2023/10/12 02:42:17;;;;;;;7.93;2.13;;;15.30;99.90;;;;;;5116379;28;20490;-69
2023/10/12 02:47:22;;;;;;;7.78;1.70;;;15.30;99.90;;;;;;5117232;28;20408;-68
2023/10/12 02:50:00;;;;;;;9.55;2.05;;;15.30;99.90;;;;;;5118429;28;20400;-68
2023/10/12 02:52:27;;;;;;;10.98;2.35;;;15.30;99.90;;;;;;5099661;28;20523;-68
2023/10/12 02:54:55;;;;;;;9.05;2.13;;;15.30;99.90;;;;;;5115605;28;20449;-69
2023/10/12 02:57:25;;;;;;;8.63;2.13;;;15.30;99.90;;;;;;5118145;28;20415;-68
2023/10/12 03:00:12;;;;;;;7.32;1.95;;;15.30;99.90;;;;;;5116368;28;20936;-69
2023/10/12 03:02:44;;;;;;;7.00;2.15;;;15.20;99.90;;;;;;5098847;28;20419;-72
2023/10/12 03:05:17;;;;;;;7.23;2.13;;;15.20;99.90;;;;;;5099260;28;20461;-69
2023/10/12 03:07:44;;;;;;;6.25;2.03;;;15.20;99.90;;;;;;5098238;28;20404;-69
2023/10/12 03:10:25;;;;;;;7.45;2.20;;;15.20;99.90;;;;;;5117272;28;20397;-69
2023/10/12 03:12:55;;;;;;;8.40;2.45;;;15.20;99.90;;;;;;5116086;28;20428;-68
2023/10/12 03:15:42;;;;;;;8.10;2.30;;;15.20;99.90;;;;;;5117446;28;20494;-68
2023/10/12 03:18:11;;;;;;;10.77;2.00;;;15.20;99.90;;;;;;5117201;28;20400;-70
2023/10/12 03:20:52;;;;;;;8.90;2.27;;;15.20;99.90;;;;;;5116268;28;20889;-70
2023/10/12 03:23:19;;;;;;;5.88;2.05;;;15.10;99.90;;;;;;5117206;28;20445;-70
2023/10/12 03:25:51;;;;;;;6.97;2.20;;;15.10;99.90;;;;;;5096640;28;20470;-69
2023/10/12 03:28:30;;;;;;;8.68;2.47;;;15.10;99.90;;;;;;5117194;28;20396;-70
2023/10/12 03:31:15;;;;;;;7.78;2.25;;;15.10;99.90;;;;;;5116989;28;20525;-68
2023/10/12 03:33:46;;;;;;;5.72;1.92;;;15.10;99.90;;;;;;5115983;28;20404;-68
2023/10/12 03:36:36;;;;;;;7.53;2.13;;;15.10;99.90;;;;;;5117323;28;20402;-68
2023/10/12 03:49:57;;;;;;;9.07;2.50;;;15.00;99.90;;;;;;5098725;28;20428;-67
2023/10/12 03:52:38;;;;;;;5.97;1.90;;;15.10;99.90;;;;;;5116813;28;20438;-67
2023/10/12 04:05:45;;;;;;;4.90;1.77;;;14.60;99.90;;;;;;5117886;28;20056;-66
2023/10/12 04:21:39;;;;;;;6.50;1.80;;;14.40;99.90;;;;;;5116506;28;20054;-66
2023/10/12 04:27:00;;;;;;;6.07;1.83;;;14.40;99.90;;;;;;5117629;28;20050;-66
2023/10/12 04:29:31;;;;;;;4.78;2.17;;;14.30;99.90;;;;;;5116511;28;20101;-66
2023/10/12 04:32:09;;;;;;;6.78;2.60;;;14.30;99.90;;;;;;5117295;28;20074;-67
2023/10/12 04:34:46;;;;;;;6.00;2.17;;;14.30;99.90;;;;;;5116411;28;20130;-67
2023/10/12 04:37:17;;;;;;;4.85;2.40;;;14.30;99.90;;;;;;5116715;28;20470;-67
2023/10/12 04:39:49;;;;;;;8.07;2.15;;;14.30;99.90;;;;;;5117238;28;20080;-66
2023/10/12 04:42:20;;;;;;;7.93;2.40;;;14.30;99.90;;;;;;5116181;28;20207;-67
2023/10/12 04:45:27;;;;;;;8.52;1.95;;;14.30;99.90;;;;;;5117097;28;20039;-66
2023/10/12 04:47:46;;;;;;;7.85;2.35;;;14.30;99.90;;;;;;5111923;28;20048;-66
2023/10/12 04:50:26;;;;;;;7.65;2.22;;;14.30;99.90;;;;;;5116304;28;20095;-66
2023/10/12 04:53:09;;;;;;;3.78;1.90;;;14.30;99.90;;;;;;5116135;28;20563;-67
2023/10/12 04:55:35;;;;;;;12.70;2.45;;;14.30;99.90;;;;;;5115875;28;20047;-66
2023/10/12 04:59:14;;;;;;;5.88;1.77;;;14.40;99.90;;;;;;5116880;28;20047;-66
2023/10/12 05:01:12;;;;;;;5.90;2.25;;;14.40;99.90;;;;;;5089444;28;20056;-66
2023/10/12 05:03:41;;;;;;;7.80;2.30;;;14.40;99.90;;;;;;5115211;28;20063;-66
2023/10/12 05:06:16;;;;;;;5.78;1.90;;;14.30;99.90;;;;;;5116260;28;20096;-67
2023/10/12 05:08:41;;;;;;;5.72;1.67;;;14.30;99.90;;;;;;5115782;28;20064;-66
2023/10/12 05:11:09;;;;;;;5.68;1.80;;;14.30;99.90;;;;;;5116722;28;20103;-66
2023/10/12 05:13:34;;;;;;;7.88;2.08;;;14.30;99.90;;;;;;5098089;28;20055;-66
2023/10/12 05:16:07;;;;;;;8.05;1.80;;;14.30;99.90;;;;;;5115731;28;20067;-66
2023/10/12 05:18:34;;;;;;;8.77;2.20;;;14.30;99.90;;;;;;5116011;28;20071;-66
2023/10/12 05:21:00;;;;;;;4.47;1.60;;;14.30;99.90;;;;;;5096403;28;20047;-66
2023/10/12 05:23:26;;;;;;;7.43;2.17;;;14.30;99.90;;;;;;5116659;28;20036;-66
2023/10/12 05:28:31;;;;;;;5.95;1.95;;;14.30;99.90;;;;;;5116579;28;20065;-66
2023/10/12 05:31:09;;;;;;;4.38;1.60;;;14.30;99.90;;;;;;5098119;28;20051;-67
2023/10/12 05:36:09;;;;;;;6.00;2.08;;;14.30;99.90;;;;;;5116046;28;20061;-66
2023/10/12 05:38:49;;;;;;;9.50;2.25;;;14.30;99.90;;;;;;5097096;28;20101;-66
2023/10/12 05:41:34;;;;;;;7.47;1.85;;;14.30;99.90;;;;;;5116384;28;20051;-66
2023/10/12 05:44:02;;;;;;;3.58;1.70;;;14.30;99.90;;;;;;5098136;28;20044;-66
2023/10/12 05:46:29;;;;;;;6.05;1.65;;;14.20;99.90;;;;;;5114738;28;20043;-66
2023/10/12 05:48:58;;;;;;;11.10;2.95;;;14.20;99.90;;;;;;5115935;28;20051;-66
2023/10/12 05:51:24;;;;;;;6.65;1.73;;;14.20;99.90;;;;;;5114390;28;20055;-65
2023/10/12 05:54:02;;;;;;;6.18;2.15;;;14.20;99.90;;;;;;5113160;28;20047;-66
2023/10/12 05:56:30;;;;;;;6.28;2.03;;;14.20;99.90;;;;;;5116024;28;20437;-67
2023/10/12 05:58:56;;;;;;;7.05;2.17;;;14.20;99.90;;;;;;5115583;28;20097;-66
2023/10/12 06:01:35;;;;;;;9.27;2.25;;;14.20;99.90;;;;;;5116308;28;20036;-66
2023/10/12 06:04:08;;;;;;;4.60;1.80;;;14.20;99.90;;;;;;5114533;28;20056;-66
2023/10/12 06:06:43;;;;;;;5.50;2.35;;;14.20;99.90;;;;;;5116258;28;20112;-66
2023/10/12 06:09:13;;;;;;;7.25;1.75;;;14.10;99.90;;;;;;5115614;28;20043;-66
2023/10/12 06:11:44;;;;;;;8.20;2.08;;;14.10;99.90;;;;;;5115500;28;20108;-66
2023/10/12 06:14:12;;;;;;;8.60;2.40;;;14.10;99.90;;;;;;5115623;28;20048;-64
2023/10/12 06:16:41;;;;;;;10.05;2.83;;;14.10;99.90;;;;;;5114574;28;20067;-66
2023/10/12 06:19:11;;;;;;;9.57;3.17;;;14.10;99.90;;;;;;5097485;28;20044;-66
2023/10/12 06:21:42;;;;;;;4.88;2.30;;;14.10;99.90;;;;;;5096654;28;20052;-65
2023/10/12 06:24:11;;;;;;;8.70;1.95;;;14.00;99.90;;;;;;5097732;28;20155;-66
2023/10/12 06:26:38;;;;;;;5.78;2.20;;;14.00;99.90;;;;;;5115833;28;20419;-66
2023/10/12 06:29:07;;;;;;;6.38;2.15;;;14.00;99.90;;;;;;5115420;28;20047;-66
2023/10/12 06:31:34;;;;;;;10.52;2.10;;;13.90;99.90;;;;;;5119581;28;20055;-66
2023/10/12 06:34:10;;;;;;;7.72;2.42;;;13.90;99.90;;;;;;5117831;28;20059;-66
2023/10/12 06:36:39;;;;;;;10.02;2.35;;;14.00;99.90;;;;;;5102379;28;20036;-66
2023/10/12 06:44:25;;;;;;;17.38;3.17;;;14.00;99.90;;;;;;5101480;28;20470;-66
2023/10/12 06:46:57;;;;;;;14.13;3.65;;;14.00;99.90;;;;;;5099435;28;20039;-66
2023/10/12 06:49:23;;;;;;;8.63;2.80;;;14.00;99.90;;;;;;5119654;28;20042;-66
2023/10/12 06:52:10;;;;;;;10.45;3.03;;;14.10;99.90;;;;;;5118654;28;20324;-65
2023/10/12 07:02:30;;;;;;;10.23;3.00;;;14.00;99.90;;;;;;5100320;28;20059;-66
2023/10/12 07:04:57;;;;;;;8.07;3.20;;;14.10;99.90;;;;;;5100666;28;20379;-65
2023/10/12 07:07:27;;;;;;;7.30;3.13;;;14.10;99.90;;;;;;5100010;28;20051;-66
2023/10/12 07:12:45;;;;;;;12.70;3.70;;;14.10;99.90;;;;;;5098470;28;20208;-66
2023/10/12 07:15:26;;;;;;;11.65;3.67;;;14.10;99.90;;;;;;5118320;28;20052;-66
2023/10/12 07:17:53;;;;;;;9.23;3.75;;;14.20;99.90;;;;;;5118265;28;20548;-66
2023/10/12 07:23:28;;;;;;;8.25;3.40;;;14.20;99.90;;;;;;5118667;28;20068;-66
2023/10/12 07:25:51;;;;;;;9.75;3.38;;;14.20;99.90;;;;;;5116993;28;20047;-68
2023/10/12 07:28:39;;;;;;;8.90;3.70;;;14.20;99.90;;;;;;5100065;28;20103;-68
2023/10/12 07:33:51;;;;;;;8.00;3.40;;;14.20;99.90;;;;;;5100413;28;20055;-67
2023/10/12 07:36:17;;;;;;;20.17;4.32;;;14.30;99.90;;;;;;5099327;28;20048;-68
2023/10/12 07:38:55;;;;;;;9.35;3.75;;;14.30;99.90;;;;;;5117465;28;20071;-68
2023/10/12 07:41:32;;;;;;;11.10;3.30;;;14.30;99.90;;;;;;5117442;28;20514;-67
2023/10/12 07:43:58;;;;;;;11.43;3.67;;;14.40;99.90;;;;;;5118402;28;20103;-68
2023/10/12 07:46:25;;;;;;;13.20;3.58;;;14.40;99.90;;;;;;5116391;28;20074;-68
2023/10/12 07:49:10;;;;;;;9.68;3.20;;;14.40;99.90;;;;;;5118137;28;20116;-67
2023/10/12 07:51:54;;;;;;;15.23;4.00;;;14.50;99.90;;;;;;5117223;28;20073;-68
2023/10/12 07:54:46;;;;;;;12.10;2.90;;;14.50;99.90;;;;;;5099444;28;20039;-67
2023/10/12 07:57:13;;;;;;;10.55;4.18;;;14.50;99.90;;;;;;5099930;28;20055;-68
2023/10/12 07:59:42;;;;;;;10.52;3.33;;;14.60;99.90;;;;;;5098043;28;20075;-67
2023/10/12 08:02:15;;;;;;;7.82;3.13;;;14.60;99.90;;;;;;5117721;28;20047;-69
2023/10/12 08:04:57;;;;;;;8.63;2.60;;;14.60;99.90;;;;;;5117465;28;20039;-67
2023/10/12 08:07:26;;;;;;;11.98;2.85;;;14.70;99.90;;;;;;5117576;28;20143;-68
2023/10/12 08:09:55;;;;;;;13.10;2.83;;;14.70;99.90;;;;;;5118119;28;20036;-68
2023/10/12 08:12:26;;;;;;;7.13;2.50;;;14.70;99.90;;;;;;5116533;28;20067;-67
2023/10/12 08:14:54;;;;;;;10.07;2.78;;;14.80;99.90;;;;;;5116907;28;20066;-68
2023/10/12 08:17:33;;;;;;;9.93;2.25;;;14.80;99.90;;;;;;5117077;28;20039;-67
2023/10/12 08:22:54;;;;;;;9.60;2.22;;;14.80;99.90;;;;;;5087922;28;20582;-67
2023/10/12 08:25:27;;;;;;;4.25;1.52;;;14.80;99.90;;;;;;5116495;28;20414;-67
2023/10/12 08:28:05;;;;;;;9.02;1.92;;;14.80;99.90;;;;;;5099039;28;20047;-67
2023/10/12 08:33:17;;;;;;;10.02;1.95;;;14.80;99.90;;;;;;5116245;28;20054;-69
2023/10/12 08:38:54;;;;;;;6.60;1.60;;;14.80;99.90;;;;;;5032417;28;20610;-67
2023/10/12 08:44:10;;;;;;;12.07;1.92;;;14.70;99.90;;;;;;5113995;28;20048;-67
2023/10/12 08:52:06;;;;;;;12.32;2.05;;;14.80;99.90;;;;;;5116198;28;20044;-67
2023/10/12 08:54:37;;;;;;;7.32;1.50;;;14.80;99.90;;;;;;5097775;28;20527;-67
2023/10/12 08:57:16;;;;;;;6.88;1.60;;;14.80;99.90;;;;;;5117070;28;20039;-67
2023/10/12 08:59:57;;;;;;;8.00;2.28;;;14.80;99.90;;;;;;5097879;28;20047;-66
2023/10/12 09:02:23;;;;;;;10.07;2.45;;;14.80;99.90;;;;;;5117466;28;20107;-67
2023/10/12 09:04:53;;;;;;;4.53;1.50;;;14.80;99.90;;;;;;5116785;28;20079;-70
2023/10/12 09:07:21;;;;;;;10.07;2.22;;;14.80;99.90;;;;;;5098141;28;20073;-67
2023/10/12 09:09:55;;;;;;;7.25;1.92;;;15.00;99.90;;;;;;5117363;28;20052;-68
2023/10/12 09:12:23;;;;;;;14.35;2.22;;;15.10;99.90;;;;;;5115455;28;20078;-67
2023/10/12 09:14:54;;;;;;;11.13;1.50;;;15.20;99.90;;;;;;5098415;28;20154;-67
2023/10/12 09:17:29;;;;;;;12.10;1.90;;;15.30;99.90;;;;;;5096545;28;20441;-67
2023/10/12 09:20:26;;;;;;;11.50;2.10;;;15.40;99.90;;;;;;5096725;28;20413;-67
2023/10/12 09:22:58;;;;;;;10.53;2.10;;;15.60;99.90;;;;;;5097222;28;20412;-67
2023/10/12 09:26:12;;;;;;;11.82;1.92;;;15.70;99.90;;;;;;5095930;28;20482;-66
2023/10/12 09:28:14;;;;;;;10.50;2.35;;;15.90;99.90;;;;;;5110645;28;20404;-67
2023/10/12 09:30:44;;;;;;;9.30;2.10;;;16.00;99.90;;;;;;5108566;28;20408;-66
2023/10/12 09:33:44;;;;;;;12.80;2.05;;;16.10;99.90;;;;;;5114299;28;20432;-67
2023/10/12 09:36:00;;;;;;;10.27;2.20;;;16.20;99.90;;;;;;5132098;28;20836;-69
2023/10/12 09:38:30;;;;;;;10.05;2.08;;;16.20;99.90;;;;;;5116330;28;20398;-68
2023/10/12 09:41:00;;;;;;;8.67;1.80;;;16.30;99.90;;;;;;5135149;28;20402;-63
2023/10/12 09:43:30;;;;;;;7.87;1.83;;;16.30;99.90;;;;;;5135437;28;20485;-65
2023/10/12 09:46:05;;;;;;;12.63;1.90;;;16.40;99.90;;;;;;5134286;28;20972;-66
2023/10/12 09:48:38;;;;;;;9.33;2.07;;;16.40;99.90;;;;;;5135781;28;20394;-65
2023/10/12 09:51:07;;;;;;;8.38;2.00;;;16.40;99.90;;;;;;5115383;28;20432;-65
2023/10/12 09:53:37;;;;;;;10.43;1.70;;;16.50;99.90;;;;;;5119617;28;20442;-66
2023/10/12 09:56:11;;;;;;;7.75;1.77;;;16.40;99.90;;;;;;5113620;28;20404;-66
2023/10/12 09:58:45;;;;;;;12.85;1.98;;;16.50;99.90;;;;;;5114338;28;20408;-65
2023/10/12 10:01:25;;;;;;;10.60;1.80;;;16.50;99.90;;;;;;5114763;28;20392;-65
2023/10/12 10:03:52;;;;;;;9.07;2.75;;;16.50;99.90;;;;;;5095149;28;20416;-65
2023/10/12 10:06:37;;;;;;;10.80;1.80;;;16.40;99.90;;;;;;5118736;27;20419;-66
2023/10/12 10:09:19;;;;;;;9.97;2.30;;;16.40;99.90;;;;;;5116099;28;20858;-65
2023/10/12 10:11:56;;;;;;;14.52;2.20;;;16.50;99.90;;;;;;5105288;28;20428;-65
2023/10/12 10:14:26;;;;;;;12.88;2.10;;;16.60;99.90;;;;;;5108966;27;20408;-64
2023/10/12 10:16:58;;;;;;;10.88;1.92;;;16.40;99.90;;;;;;5106233;28;21071;-65
2023/10/12 10:19:29;;;;;;;27.23;7.57;;;16.40;99.90;;;;;;5106088;28;20474;-65
2023/10/12 10:22:05;;;;;;;25.15;6.82;;;16.40;99.90;;;;;;5087459;28;20410;-65
2023/10/12 10:24:46;;;;;;;15.98;3.17;;;16.40;99.90;;;;;;5098032;27;20412;-64
2023/10/12 10:27:15;;;;;;;10.13;2.42;;;16.40;99.90;;;;;;5118072;28;20487;-66
2023/10/12 10:29:53;;;;;;;10.73;2.10;;;16.50;99.90;;;;;;5116949;27;20396;-64
2023/10/12 10:32:37;;;;;;;9.95;2.35;;;16.40;99.90;;;;;;5118003;28;20940;-65
2023/10/12 10:35:18;;;;;;;11.70;1.95;;;16.40;99.90;;;;;;5117965;27;20495;-65
2023/10/12 10:37:58;;;;;;;10.52;1.95;;;16.40;99.90;;;;;;5116542;28;20412;-64
2023/10/12 10:40:45;;;;;;;11.80;1.95;;;16.50;99.90;;;;;;5101341;28;20393;-65
2023/10/12 10:43:15;;;;;;;10.93;1.85;;;16.50;99.90;;;;;;5116165;28;20392;-65
2023/10/12 10:45:56;;;;;;;11.10;2.45;;;16.50;99.90;;;;;;5097908;28;20480;-65
2023/10/12 10:48:27;;;;;;;17.85;4.20;;;16.40;99.90;;;;;;5114429;28;20400;-64
2023/10/12 10:50:53;;;;;;;14.87;2.97;;;16.40;99.90;;;;;;5116333;28;20412;-64
2023/10/12 10:53:20;;;;;;;11.33;1.87;;;16.50;99.90;;;;;;5117525;28;20525;-65
2023/10/12 10:55:50;;;;;;;9.50;2.13;;;16.60;99.90;;;;;;5117061;28;20408;-64
2023/10/12 10:58:19;;;;;;;11.23;1.88;;;16.50;99.90;;;;;;5117760;28;20389;-66
2023/10/12 11:00:46;;;;;;;11.60;2.20;;;16.60;99.90;;;;;;5117879;28;20450;-64
2023/10/12 11:03:16;;;;;;;13.23;2.17;;;16.80;99.90;;;;;;5116853;28;20393;-64
2023/10/12 11:05:44;;;;;;;12.60;2.15;;;16.60;99.90;;;;;;5099878;28;20827;-65
2023/10/12 11:08:19;;;;;;;14.52;3.55;;;16.70;99.90;;;;;;5116769;28;20449;-64
2023/10/12 11:13:33;;;;;;;13.50;2.30;;;16.60;99.90;;;;;;5117504;28;20435;-65
2023/10/12 11:16:20;;;;;;;11.57;2.78;;;16.60;99.90;;;;;;5078450;28;20851;-65
2023/10/12 11:18:51;;;;;;;11.18;2.00;;;16.60;99.90;;;;;;5116785;28;20921;-65
2023/10/12 11:21:18;;;;;;;11.30;1.92;;;16.70;99.90;;;;;;5112458;28;20393;-67
2023/10/12 11:23:50;;;;;;;12.93;1.92;;;16.70;99.90;;;;;;5107599;28;20406;-65
2023/10/12 11:26:20;;;;;;;9.88;1.85;;;16.80;99.90;;;;;;5107188;28;20892;-65
2023/10/12 11:29:00;;;;;;;17.95;4.05;;;16.80;99.90;;;;;;5085657;28;20398;-64
2023/10/12 11:31:32;;;;;;;13.45;2.80;;;16.80;99.90;;;;;;5106728;27;20741;-64
2023/10/12 11:33:59;;;;;;;8.80;1.90;;;16.80;99.90;;;;;;5115872;28;20408;-65
2023/10/12 11:36:26;;;;;;;10.30;2.22;;;16.70;99.90;;;;;;5117530;28;20465;-65
2023/10/12 11:39:10;;;;;;;11.43;1.90;;;16.70;99.90;;;;;;5115521;28;20398;-65
2023/10/12 11:41:36;;;;;;;10.50;1.98;;;16.80;99.90;;;;;;5084856;28;20423;-65
2023/10/12 11:44:05;;;;;;;11.70;2.30;;;16.70;99.90;;;;;;5116995;28;20395;-66
2023/10/12 11:46:43;;;;;;;9.33;1.70;;;16.70;99.90;;;;;;5115373;28;20400;-66
2023/10/12 11:49:12;;;;;;;13.03;2.00;;;16.70;99.90;;;;;;5115274;28;21194;-65
2023/10/12 11:51:41;;;;;;;10.52;2.20;;;16.70;99.90;;;;;;5115804;28;20469;-66
2023/10/12 11:54:10;;;;;;;10.15;1.75;;;16.70;99.90;;;;;;5116708;28;20400;-66
2023/10/12 11:56:44;;;;;;;11.15;2.42;;;16.70;99.90;;;;;;5094686;28;21220;-66
2023/10/12 11:59:22;;;;;;;14.13;2.13;;;16.70;99.90;;;;;;5085060;28;20440;-65
2023/10/12 12:01:54;;;;;;;11.20;2.08;;;16.70;99.90;;;;;;5096310;28;20996;-65
2023/10/12 12:04:30;;;;;;;13.65;2.70;;;16.60;99.90;;;;;;5097095;28;20643;-65
2023/10/12 12:06:57;;;;;;;13.68;2.72;;;16.60;99.90;;;;;;5090170;28;20391;-65
2023/10/12 12:09:27;;;;;;;10.07;2.05;;;16.50;99.90;;;;;;5108194;28;20529;-66
2023/10/12 12:11:54;;;;;;;10.32;2.00;;;16.50;99.90;;;;;;5086418;28;20436;-66
2023/10/12 12:14:20;;;;;;;10.70;2.00;;;16.40;99.90;;;;;;5085002;28;20436;-66
2023/10/12 12:16:46;;;;;;;14.13;2.07;;;16.50;99.90;;;;;;5071770;28;20429;-65
2023/10/12 12:19:18;;;;;;;10.68;1.80;;;16.50;99.90;;;;;;5095954;28;20402;-67
2023/10/12 12:21:45;;;;;;;16.30;2.22;;;16.40;99.90;;;;;;5102073;28;20408;-64
2023/10/12 12:24:25;;;;;;;12.45;1.90;;;16.30;99.90;;;;;;5116003;28;20400;-66
2023/10/12 12:26:53;;;;;;;13.18;2.20;;;16.30;99.90;;;;;;5116153;28;20791;-64
2023/10/12 12:29:26;;;;;;;10.23;1.90;;;16.30;99.90;;;;;;5114696;28;20408;-65
2023/10/12 12:31:53;;;;;;;10.75;2.10;;;16.30;99.90;;;;;;5116221;28;20639;-65
2023/10/12 12:34:38;;;;;;;12.85;2.03;;;16.20;99.90;;;;;;5080321;28;20412;-64
2023/10/12 12:37:10;;;;;;;9.93;2.40;;;16.20;99.90;;;;;;5096951;28;20412;-66
2023/10/12 12:39:36;;;;;;;10.65;2.13;;;16.10;99.90;;;;;;5114667;28;20415;-65
2023/10/12 12:42:07;;;;;;;9.90;2.00;;;16.10;99.90;;;;;;5114294;28;20465;-65
2023/10/12 12:44:33;;;;;;;14.23;2.35;;;16.10;99.90;;;;;;5076861;28;20764;-66
2023/10/12 12:46:59;;;;;;;11.57;2.00;;;16.00;99.90;;;;;;5075445;28;20413;-64
2023/10/12 12:49:25;;;;;;;15.32;2.33;;;15.90;99.90;;;;;;5114589;27;20403;-64
2023/10/12 12:51:51;;;;;;;14.83;2.33;;;15.90;99.90;;;;;;5115059;28;20993;-65
2023/10/12 12:54:17;;;;;;;9.18;2.25;;;15.80;99.90;;;;;;5096485;28;20593;-65
2023/10/12 12:56:42;;;;;;;13.18;2.38;;;15.80;99.90;;;;;;5115730;28;20419;-65
2023/10/12 12:59:10;;;;;;;11.65;2.55;;;15.60;99.90;;;;;;5114435;28;20487;-66
2023/10/12 13:01:39;;;;;;;15.03;2.67;;;15.70;99.90;;;;;;5115452;28;20459;-65
2023/10/12 13:04:05;;;;;;;14.80;2.80;;;15.60;99.90;;;;;;5113633;28;20400;-65
2023/10/12 13:06:33;;;;;;;14.45;2.97;;;15.60;99.90;;;;;;5115478;28;20388;-65
2023/10/12 13:09:01;;;;;;;11.55;2.47;;;15.50;99.90;;;;;;5115012;28;20404;-66
2023/10/12 13:11:27;;;;;;;16.52;2.78;;;15.40;99.90;;;;;;5114442;28;20755;-66
2023/10/12 13:13:53;;;;;;;12.27;2.40;;;15.30;99.90;;;;;;5128506;27;20723;-66
2023/10/12 13:16:19;;;;;;;10.23;2.30;;;15.30;99.90;;;;;;5099042;28;20391;-65
2023/10/12 13:18:47;;;;;;;11.85;2.42;;;15.20;99.90;;;;;;5134844;28;20434;-66
2023/10/12 13:21:14;;;;;;;10.25;2.35;;;15.10;99.90;;;;;;5134520;28;20403;-65
2023/10/12 13:23:42;;;;;;;9.82;2.30;;;15.20;99.90;;;;;;5117220;28;20407;-65
2023/10/12 13:26:17;;;;;;;13.65;2.17;;;15.10;99.90;;;;;;5135222;28;20399;-65
2023/10/12 13:28:46;;;;;;;11.73;2.47;;;15.20;99.90;;;;;;5134669;28;20502;-66
2023/10/12 13:31:14;;;;;;;13.38;2.55;;;15.10;99.90;;;;;;5135437;28;20485;-66
2023/10/12 13:33:43;;;;;;;11.45;2.05;;;15.10;99.90;;;;;;5132856;28;20433;-66
2023/10/12 13:36:09;;;;;;;9.07;1.92;;;15.00;99.90;;;;;;5107572;28;20978;-65
2023/10/12 13:38:37;;;;;;;9.30;2.30;;;15.00;99.90;;;;;;5107955;28;20418;-65
2023/10/12 13:41:03;;;;;;;14.57;2.35;;;15.00;99.90;;;;;;5108058;28;20413;-66
2023/10/12 13:43:34;;;;;;;10.93;2.38;;;15.00;99.90;;;;;;5091172;28;20416;-65
2023/10/12 13:46:07;;;;;;;12.33;2.73;;;15.00;99.90;;;;;;5112971;28;20400;-66
2023/10/12 13:48:37;;;;;;;14.33;2.40;;;14.90;99.90;;;;;;5127314;27;20399;-66
2023/10/12 13:51:19;;;;;;;12.63;2.20;;;15.00;99.90;;;;;;5139035;27;20441;-66
2023/10/12 13:53:50;;;;;;;11.77;2.08;;;14.90;99.90;;;;;;5128789;27;20427;-66
2023/10/12 13:56:16;;;;;;;7.15;1.83;;;14.90;99.90;;;;;;5117198;28;20047;-68
2023/10/12 13:58:47;;;;;;;8.90;1.52;;;14.70;99.90;;;;;;5100529;28;20046;-67
2023/10/12 14:01:16;;;;;;;9.38;1.48;;;14.40;99.90;;;;;;5119594;28;20039;-68
2023/10/12 14:03:50;;;;;;;12.48;1.80;;;14.40;99.90;;;;;;5082001;28;20075;-66
2023/10/12 14:06:19;;;;;;;6.53;1.80;;;14.40;99.90;;;;;;5076180;28;20469;-67
2023/10/12 14:08:46;;;;;;;5.38;1.40;;;14.40;99.90;;;;;;5078369;28;20594;-67
2023/10/12 14:11:21;;;;;;;5.97;1.63;;;14.30;99.90;;;;;;5078675;28;20100;-66
2023/10/12 14:13:48;;;;;;;9.65;2.22;;;14.20;99.90;;;;;;5072651;28;20054;-67
2023/10/12 14:16:15;;;;;;;9.77;4.43;;;14.20;99.90;;;;;;5077519;28;20075;-67
2023/10/12 14:18:41;;;;;;;13.73;4.72;;;14.20;99.90;;;;;;5073183;28;20072;-67
2023/10/12 14:21:11;;;;;;;14.70;8.50;;;14.20;99.90;;;;;;5074480;28;20121;-67
2023/10/12 14:23:45;;;;;;;32.83;16.63;;;14.20;99.90;;;;;;5076350;28;20037;-68
2023/10/12 14:26:17;;;;;;;22.38;10.50;;;14.20;99.90;;;;;;5078845;28;20123;-68
2023/10/12 14:28:47;;;;;;;10.82;2.90;;;14.20;99.90;;;;;;5078271;28;20064;-69
2023/10/12 14:31:13;;;;;;;9.65;2.60;;;14.00;99.90;;;;;;5077630;28;20044;-67
2023/10/12 14:33:40;;;;;;;8.77;2.22;;;14.10;99.90;;;;;;5077925;28;20080;-67
2023/10/12 14:36:05;;;;;;;6.85;2.42;;;14.00;99.90;;;;;;5079252;28;20040;-67
2023/10/12 14:38:32;;;;;;;7.45;2.45;;;14.00;99.90;;;;;;5076890;28;20125;-68
2023/10/12 14:41:01;;;;;;;7.97;2.13;;;14.00;99.90;;;;;;5079137;28;20119;-68
2023/10/12 14:43:30;;;;;;;10.02;3.08;;;14.00;99.90;;;;;;5076244;28;20494;-68
2023/10/12 14:45:56;;;;;;;11.15;1.98;;;14.10;99.90;;;;;;5076286;28;20082;-68
2023/10/12 14:48:22;;;;;;;19.10;2.53;;;14.00;99.90;;;;;;5078732;28;20041;-68
2023/10/12 14:51:48;;;;;;;7.40;2.22;;;13.80;99.90;;;;;;5077594;28;20094;-68
2023/10/12 14:53:50;;;;;;;10.90;2.60;;;13.90;99.90;;;;;;5052698;28;20088;-69